sensor_id;sensor_type;location;lat;lon;timestamp;temperature;humidity
2174;DHT22;1093;51.424;11.764;2023-05-21T00:01:01;15.00;1.40
2174;DHT22;1093;51.424;11.764;2023-05-21T00:03:30;15.00;1.40
2174;DHT22;1093;51.424;11.764;2023-05-21T00:05:57;15.00;1.40
2174;DHT22;1093;51.424;11.764;2023-05-21T00:08:26;15.00;1.40
2174;DHT22;1093;51.424;11.764;2023-05-21T00:10:52;14.90;1.40
2174;DHT22;1093;51.424;11.764;2023-05-21T00:13:19;14.90;1.40
2174;DHT22;1093;51.424;11.764;2023-05-21T00:15:47;14.90;1.40
2174;DHT22;1093;51.424;11.764;2023-05-21T00:18:14;14.80;1.40
2174;DHT22;1093;51.424;11.764;2023-05-21T00:20:41;14.80;1.40
2174;DHT22;1093;51.424;11.764;2023-05-21T00:23:08;14.80;1.40
2174;DHT22;1093;51.424;11.764;2023-05-21T00:25:34;14.80;1.40
2174;DHT22;1093;51.424;11.764;2023-05-21T00:28:01;14.70;1.40
2174;DHT22;1093;51.424;11.764;2023-05-21T00:30:28;14.70;1.40
2174;DHT22;1093;51.424;11.764;2023-05-21T00:32:56;14.70;1.40
2174;DHT22;1093;51.424;11.764;2023-05-21T00:35:26;14.70;1.40
2174;DHT22;1093;51.424;11.764;2023-05-21T00:37:53;14.60;1.40
2174;DHT22;1093;51.424;11.764;2023-05-21T00:40:20;14.60;1.40
2174;DHT22;1093;51.424;11.764;2023-05-21T00:42:47;14.60;1.40
2174;DHT22;1093;51.424;11.764;2023-05-21T00:45:14;14.50;1.40
2174;DHT22;1093;51.424;11.764;2023-05-21T00:47:41;14.50;1.40
2174;DHT22;1093;51.424;11.764;2023-05-21T00:50:10;14.50;1.40
2174;DHT22;1093;51.424;11.764;2023-05-21T00:52:39;14.50;1.40
2174;DHT22;1093;51.424;11.764;2023-05-21T00:55:08;14.50;1.40
2174;DHT22;1093;51.424;11.764;2023-05-21T00:57:35;14.40;1.40
2174;DHT22;1093;51.424;11.764;2023-05-21T01:00:03;14.50;1.40
2174;DHT22;1093;51.424;11.764;2023-05-21T01:02:32;14.40;1.40
2174;DHT22;1093;51.424;11.764;2023-05-21T01:05:02;14.40;1.40
2174;DHT22;1093;51.424;11.764;2023-05-21T01:07:31;14.30;1.40
2174;DHT22;1093;51.424;11.764;2023-05-21T01:10:00;14.30;1.40
2174;DHT22;1093;51.424;11.764;2023-05-21T01:12:29;14.30;1.40
2174;DHT22;1093;51.424;11.764;2023-05-21T01:14:57;14.20;1.40
2174;DHT22;1093;51.424;11.764;2023-05-21T01:17:25;14.20;1.40
2174;DHT22;1093;51.424;11.764;2023-05-21T01:19:52;14.20;1.40
2174;DHT22;1093;51.424;11.764;2023-05-21T01:22:20;14.20;1.40
2174;DHT22;1093;51.424;11.764;2023-05-21T01:24:52;14.20;1.40
2174;DHT22;1093;51.424;11.764;2023-05-21T01:27:20;14.30;1.40
2174;DHT22;1093;51.424;11.764;2023-05-21T01:29:46;14.40;1.40
2174;DHT22;1093;51.424;11.764;2023-05-21T01:32:17;14.40;1.40
2174;DHT22;1093;51.424;11.764;2023-05-21T01:34:49;14.30;1.40
2174;DHT22;1093;51.424;11.764;2023-05-21T01:37:21;14.20;1.40
2174;DHT22;1093;51.424;11.764;2023-05-21T01:39:55;14.20;1.40
2174;DHT22;1093;51.424;11.764;2023-05-21T01:42:24;14.10;1.40
2174;DHT22;1093;51.424;11.764;2023-05-21T01:44:54;14.10;1.40
2174;DHT22;1093;51.424;11.764;2023-05-21T01:47:23;14.10;1.40
2174;DHT22;1093;51.424;11.764;2023-05-21T01:49:50;14.00;1.40
2174;DHT22;1093;51.424;11.764;2023-05-21T01:52:17;14.00;1.40
2174;DHT22;1093;51.424;11.764;2023-05-21T01:54:44;14.00;1.40
2174;DHT22;1093;51.424;11.764;2023-05-21T01:57:12;14.10;1.40
2174;DHT22;1093;51.424;11.764;2023-05-21T01:59:39;14.00;1.40
2174;DHT22;1093;51.424;11.764;2023-05-21T02:02:05;14.00;1.40
2174;DHT22;1093;51.424;11.764;2023-05-21T02:04:32;14.00;1.40
2174;DHT22;1093;51.424;11.764;2023-05-21T02:06:59;14.00;1.40
2174;DHT22;1093;51.424;11.764;2023-05-21T02:09:27;14.00;1.40
2174;DHT22;1093;51.424;11.764;2023-05-21T02:11:54;13.90;1.40
2174;DHT22;1093;51.424;11.764;2023-05-21T02:14:22;13.90;1.40
2174;DHT22;1093;51.424;11.764;2023-05-21T02:16:49;14.00;1.40
2174;DHT22;1093;51.424;11.764;2023-05-21T02:19:17;13.90;1.40
2174;DHT22;1093;51.424;11.764;2023-05-21T02:21:44;13.90;1.40
2174;DHT22;1093;51.424;11.764;2023-05-21T02:24:11;13.90;1.40
2174;DHT22;1093;51.424;11.764;2023-05-21T02:26:37;13.90;1.40
2174;DHT22;1093;51.424;11.764;2023-05-21T02:29:04;13.90;1.40
2174;DHT22;1093;51.424;11.764;2023-05-21T02:31:32;13.80;1.40
2174;DHT22;1093;51.424;11.764;2023-05-21T02:33:59;13.80;1.40
2174;DHT22;1093;51.424;11.764;2023-05-21T02:36:26;13.80;1.40
2174;DHT22;1093;51.424;11.764;2023-05-21T02:38:53;13.80;1.40
2174;DHT22;1093;51.424;11.764;2023-05-21T02:41:22;13.80;1.40
2174;DHT22;1093;51.424;11.764;2023-05-21T02:43:48;13.80;1.40
2174;DHT22;1093;51.424;11.764;2023-05-21T02:46:15;13.80;1.40
2174;DHT22;1093;51.424;11.764;2023-05-21T02:48:44;13.80;1.40
2174;DHT22;1093;51.424;11.764;2023-05-21T02:51:10;13.80;1.40
2174;DHT22;1093;51.424;11.764;2023-05-21T02:53:38;13.90;1.40
2174;DHT22;1093;51.424;11.764;2023-05-21T02:56:05;13.80;1.40
2174;DHT22;1093;51.424;11.764;2023-05-21T02:58:31;13.80;1.40
2174;DHT22;1093;51.424;11.764;2023-05-21T03:00:58;13.70;1.40
2174;DHT22;1093;51.424;11.764;2023-05-21T03:03:25;13.70;1.40
2174;DHT22;1093;51.424;11.764;2023-05-21T03:05:53;13.70;1.40
2174;DHT22;1093;51.424;11.764;2023-05-21T03:08:19;13.70;1.40
2174;DHT22;1093;51.424;11.764;2023-05-21T03:10:47;13.70;1.40
2174;DHT22;1093;51.424;11.764;2023-05-21T03:13:15;13.70;1.40
2174;DHT22;1093;51.424;11.764;2023-05-21T03:15:41;13.60;1.40
2174;DHT22;1093;51.424;11.764;2023-05-21T03:18:08;13.60;1.40
2174;DHT22;1093;51.424;11.764;2023-05-21T03:20:36;13.60;1.40
2174;DHT22;1093;51.424;11.764;2023-05-21T03:23:12;13.60;1.40
2174;DHT22;1093;51.424;11.764;2023-05-21T03:25:39;13.60;1.40
2174;DHT22;1093;51.424;11.764;2023-05-21T03:28:06;13.60;1.40
2174;DHT22;1093;51.424;11.764;2023-05-21T03:30:34;13.60;1.40
2174;DHT22;1093;51.424;11.764;2023-05-21T03:33:01;13.60;1.40
2174;DHT22;1093;51.424;11.764;2023-05-21T03:35:29;13.60;1.40
2174;DHT22;1093;51.424;11.764;2023-05-21T03:37:56;13.60;1.40
2174;DHT22;1093;51.424;11.764;2023-05-21T03:40:24;13.60;1.40
2174;DHT22;1093;51.424;11.764;2023-05-21T03:42:51;13.60;1.40
2174;DHT22;1093;51.424;11.764;2023-05-21T03:45:18;13.50;1.40
2174;DHT22;1093;51.424;11.764;2023-05-21T03:47:44;13.50;1.40
2174;DHT22;1093;51.424;11.764;2023-05-21T03:50:12;13.50;1.40
2174;DHT22;1093;51.424;11.764;2023-05-21T03:52:39;13.50;1.40
2174;DHT22;1093;51.424;11.764;2023-05-21T03:55:07;13.50;1.40
2174;DHT22;1093;51.424;11.764;2023-05-21T03:57:36;13.50;1.40
2174;DHT22;1093;51.424;11.764;2023-05-21T04:00:03;13.50;1.40
2174;DHT22;1093;51.424;11.764;2023-05-21T04:02:30;13.50;1.40
2174;DHT22;1093;51.424;11.764;2023-05-21T04:04:57;13.50;1.40
2174;DHT22;1093;51.424;11.764;2023-05-21T04:07:24;13.50;1.40
2174;DHT22;1093;51.424;11.764;2023-05-21T04:09:51;13.50;1.40
2174;DHT22;1093;51.424;11.764;2023-05-21T04:12:18;13.50;1.40
2174;DHT22;1093;51.424;11.764;2023-05-21T04:14:46;13.50;1.40
2174;DHT22;1093;51.424;11.764;2023-05-21T04:17:13;13.50;1.40
2174;DHT22;1093;51.424;11.764;2023-05-21T04:19:40;13.50;1.40
2174;DHT22;1093;51.424;11.764;2023-05-21T04:22:08;13.50;1.40
2174;DHT22;1093;51.424;11.764;2023-05-21T04:24:35;13.50;1.40
2174;DHT22;1093;51.424;11.764;2023-05-21T04:27:03;13.50;1.40
2174;DHT22;1093;51.424;11.764;2023-05-21T04:29:31;13.50;1.40
2174;DHT22;1093;51.424;11.764;2023-05-21T04:32:00;13.50;1.40
2174;DHT22;1093;51.424;11.764;2023-05-21T04:34:27;13.50;1.40
2174;DHT22;1093;51.424;11.764;2023-05-21T04:36:54;13.60;1.40
2174;DHT22;1093;51.424;11.764;2023-05-21T04:39:21;13.60;1.40
2174;DHT22;1093;51.424;11.764;2023-05-21T04:41:48;13.60;1.40
2174;DHT22;1093;51.424;11.764;2023-05-21T04:44:19;13.60;1.40
2174;DHT22;1093;51.424;11.764;2023-05-21T04:46:46;13.70;1.40
2174;DHT22;1093;51.424;11.764;2023-05-21T04:49:14;13.70;1.40
2174;DHT22;1093;51.424;11.764;2023-05-21T04:51:42;13.70;1.40
2174;DHT22;1093;51.424;11.764;2023-05-21T04:54:09;13.70;1.40
2174;DHT22;1093;51.424;11.764;2023-05-21T04:56:36;13.80;1.40
2174;DHT22;1093;51.424;11.764;2023-05-21T04:59:03;13.80;1.40
2174;DHT22;1093;51.424;11.764;2023-05-21T05:01:31;13.90;1.40
2174;DHT22;1093;51.424;11.764;2023-05-21T05:04:00;14.00;1.40
2174;DHT22;1093;51.424;11.764;2023-05-21T05:06:28;14.20;1.40
2174;DHT22;1093;51.424;11.764;2023-05-21T05:08:56;14.30;1.40
2174;DHT22;1093;51.424;11.764;2023-05-21T05:11:24;14.40;1.40
2174;DHT22;1093;51.424;11.764;2023-05-21T05:13:51;14.60;1.40
2174;DHT22;1093;51.424;11.764;2023-05-21T05:16:18;14.70;1.40
2174;DHT22;1093;51.424;11.764;2023-05-21T05:18:49;14.90;1.40
2174;DHT22;1093;51.424;11.764;2023-05-21T05:21:16;15.00;1.40
2174;DHT22;1093;51.424;11.764;2023-05-21T05:23:45;15.20;1.40
2174;DHT22;1093;51.424;11.764;2023-05-21T05:26:12;15.30;1.40
2174;DHT22;1093;51.424;11.764;2023-05-21T05:28:39;15.50;1.40
2174;DHT22;1093;51.424;11.764;2023-05-21T05:31:06;15.60;1.40
2174;DHT22;1093;51.424;11.764;2023-05-21T05:33:32;15.70;1.40
2174;DHT22;1093;51.424;11.764;2023-05-21T05:35:59;15.80;1.40
2174;DHT22;1093;51.424;11.764;2023-05-21T05:38:26;16.00;1.40
2174;DHT22;1093;51.424;11.764;2023-05-21T05:40:54;16.00;1.40
2174;DHT22;1093;51.424;11.764;2023-05-21T05:43:20;16.20;1.40
2174;DHT22;1093;51.424;11.764;2023-05-21T05:45:47;16.30;1.40
2174;DHT22;1093;51.424;11.764;2023-05-21T05:48:14;16.50;1.40
2174;DHT22;1093;51.424;11.764;2023-05-21T05:50:41;16.50;1.40
2174;DHT22;1093;51.424;11.764;2023-05-21T05:53:07;16.70;1.40
2174;DHT22;1093;51.424;11.764;2023-05-21T05:55:34;16.80;1.40
2174;DHT22;1093;51.424;11.764;2023-05-21T05:58:02;16.80;1.40
2174;DHT22;1093;51.424;11.764;2023-05-21T06:00:29;16.80;1.40
2174;DHT22;1093;51.424;11.764;2023-05-21T06:02:56;17.00;1.40
2174;DHT22;1093;51.424;11.764;2023-05-21T06:05:23;17.00;1.40
2174;DHT22;1093;51.424;11.764;2023-05-21T06:07:50;17.10;1.40
2174;DHT22;1093;51.424;11.764;2023-05-21T06:10:16;17.10;1.40
2174;DHT22;1093;51.424;11.764;2023-05-21T06:12:44;17.20;1.40
2174;DHT22;1093;51.424;11.764;2023-05-21T06:15:13;17.30;1.40
2174;DHT22;1093;51.424;11.764;2023-05-21T06:17:41;17.30;1.40
2174;DHT22;1093;51.424;11.764;2023-05-21T06:20:08;17.30;1.40
2174;DHT22;1093;51.424;11.764;2023-05-21T06:22:36;17.40;1.40
2174;DHT22;1093;51.424;11.764;2023-05-21T06:25:04;17.40;1.40
2174;DHT22;1093;51.424;11.764;2023-05-21T06:27:31;17.50;1.40
2174;DHT22;1093;51.424;11.764;2023-05-21T06:29:58;17.50;1.40
2174;DHT22;1093;51.424;11.764;2023-05-21T06:32:26;17.60;1.40
2174;DHT22;1093;51.424;11.764;2023-05-21T06:34:53;17.60;1.40
2174;DHT22;1093;51.424;11.764;2023-05-21T06:37:20;17.60;1.40
2174;DHT22;1093;51.424;11.764;2023-05-21T06:39:47;17.60;1.40
2174;DHT22;1093;51.424;11.764;2023-05-21T06:42:14;17.70;1.40
2174;DHT22;1093;51.424;11.764;2023-05-21T06:44:41;17.70;1.40
2174;DHT22;1093;51.424;11.764;2023-05-21T06:47:07;17.70;1.40
2174;DHT22;1093;51.424;11.764;2023-05-21T06:49:36;17.80;1.40
2174;DHT22;1093;51.424;11.764;2023-05-21T06:52:03;17.80;1.40
2174;DHT22;1093;51.424;11.764;2023-05-21T06:54:30;17.90;1.40
2174;DHT22;1093;51.424;11.764;2023-05-21T06:56:57;18.00;1.40
2174;DHT22;1093;51.424;11.764;2023-05-21T06:59:25;18.10;1.40
2174;DHT22;1093;51.424;11.764;2023-05-21T07:01:51;18.20;1.40
2174;DHT22;1093;51.424;11.764;2023-05-21T07:04:18;18.40;1.40
2174;DHT22;1093;51.424;11.764;2023-05-21T07:06:46;18.40;1.40
2174;DHT22;1093;51.424;11.764;2023-05-21T07:09:13;18.40;1.40
2174;DHT22;1093;51.424;11.764;2023-05-21T07:11:40;18.50;1.40
2174;DHT22;1093;51.424;11.764;2023-05-21T07:14:07;18.50;1.40
2174;DHT22;1093;51.424;11.764;2023-05-21T07:16:34;18.60;1.40
2174;DHT22;1093;51.424;11.764;2023-05-21T07:19:01;18.60;1.40
2174;DHT22;1093;51.424;11.764;2023-05-21T07:21:29;18.70;1.40
2174;DHT22;1093;51.424;11.764;2023-05-21T07:23:59;18.80;1.40
2174;DHT22;1093;51.424;11.764;2023-05-21T07:26:26;18.90;1.40
2174;DHT22;1093;51.424;11.764;2023-05-21T07:28:53;19.00;1.40
2174;DHT22;1093;51.424;11.764;2023-05-21T07:31:19;19.10;1.40
2174;DHT22;1093;51.424;11.764;2023-05-21T07:33:46;19.20;1.40
2174;DHT22;1093;51.424;11.764;2023-05-21T07:36:14;19.20;1.40
2174;DHT22;1093;51.424;11.764;2023-05-21T07:38:42;19.30;1.40
2174;DHT22;1093;51.424;11.764;2023-05-21T07:41:10;19.40;1.40
2174;DHT22;1093;51.424;11.764;2023-05-21T07:43:37;19.40;1.40
2174;DHT22;1093;51.424;11.764;2023-05-21T07:46:04;19.60;1.40
2174;DHT22;1093;51.424;11.764;2023-05-21T07:48:31;19.60;1.40
2174;DHT22;1093;51.424;11.764;2023-05-21T07:50:57;19.70;1.40
2174;DHT22;1093;51.424;11.764;2023-05-21T07:53:24;19.70;1.40
2174;DHT22;1093;51.424;11.764;2023-05-21T07:55:51;19.80;1.40
2174;DHT22;1093;51.424;11.764;2023-05-21T07:58:20;19.90;1.40
2174;DHT22;1093;51.424;11.764;2023-05-21T08:00:47;20.10;1.40
2174;DHT22;1093;51.424;11.764;2023-05-21T08:03:16;20.10;1.40
2174;DHT22;1093;51.424;11.764;2023-05-21T08:05:44;20.20;1.40
2174;DHT22;1093;51.424;11.764;2023-05-21T08:08:13;20.30;1.40
2174;DHT22;1093;51.424;11.764;2023-05-21T08:10:39;20.40;1.40
2174;DHT22;1093;51.424;11.764;2023-05-21T08:13:06;20.50;1.40
2174;DHT22;1093;51.424;11.764;2023-05-21T08:15:35;20.60;1.40
2174;DHT22;1093;51.424;11.764;2023-05-21T08:18:02;20.70;1.40
2174;DHT22;1093;51.424;11.764;2023-05-21T08:20:30;20.80;1.40
2174;DHT22;1093;51.424;11.764;2023-05-21T08:22:59;20.90;1.40
2174;DHT22;1093;51.424;11.764;2023-05-21T08:25:26;21.10;1.40
2174;DHT22;1093;51.424;11.764;2023-05-21T08:27:53;21.20;1.40
2174;DHT22;1093;51.424;11.764;2023-05-21T08:30:20;21.20;1.40
2174;DHT22;1093;51.424;11.764;2023-05-21T08:32:48;21.40;1.40
2174;DHT22;1093;51.424;11.764;2023-05-21T08:35:15;21.50;1.40
2174;DHT22;1093;51.424;11.764;2023-05-21T08:37:42;21.60;1.40
2174;DHT22;1093;51.424;11.764;2023-05-21T08:40:10;21.80;1.40
2174;DHT22;1093;51.424;11.764;2023-05-21T08:42:42;21.90;1.40
2174;DHT22;1093;51.424;11.764;2023-05-21T08:45:11;22.10;1.40
2174;DHT22;1093;51.424;11.764;2023-05-21T08:47:40;22.40;1.40
2174;DHT22;1093;51.424;11.764;2023-05-21T08:50:12;22.50;1.40
2174;DHT22;1093;51.424;11.764;2023-05-21T08:52:39;22.80;1.40
2174;DHT22;1093;51.424;11.764;2023-05-21T08:55:07;22.90;1.40
2174;DHT22;1093;51.424;11.764;2023-05-21T08:57:35;23.20;1.40
2174;DHT22;1093;51.424;11.764;2023-05-21T09:00:03;23.30;1.40
2174;DHT22;1093;51.424;11.764;2023-05-21T09:02:33;23.40;1.40
2174;DHT22;1093;51.424;11.764;2023-05-21T09:05:02;23.60;1.40
2174;DHT22;1093;51.424;11.764;2023-05-21T09:07:35;23.70;1.40
2174;DHT22;1093;51.424;11.764;2023-05-21T09:10:10;23.80;1.40
2174;DHT22;1093;51.424;11.764;2023-05-21T09:12:39;24.00;1.40
2174;DHT22;1093;51.424;11.764;2023-05-21T09:15:08;24.10;1.40
2174;DHT22;1093;51.424;11.764;2023-05-21T09:17:35;24.30;1.40
2174;DHT22;1093;51.424;11.764;2023-05-21T09:20:07;24.40;1.40
2174;DHT22;1093;51.424;11.764;2023-05-21T09:22:42;24.60;1.40
2174;DHT22;1093;51.424;11.764;2023-05-21T09:25:10;24.70;1.40
2174;DHT22;1093;51.424;11.764;2023-05-21T09:27:37;24.80;1.40
2174;DHT22;1093;51.424;11.764;2023-05-21T09:30:09;24.90;1.40
2174;DHT22;1093;51.424;11.764;2023-05-21T09:32:36;25.00;1.40
2174;DHT22;1093;51.424;11.764;2023-05-21T09:35:07;25.10;1.40
2174;DHT22;1093;51.424;11.764;2023-05-21T09:37:38;25.20;1.40
2174;DHT22;1093;51.424;11.764;2023-05-21T09:40:17;25.40;1.40
2174;DHT22;1093;51.424;11.764;2023-05-21T09:42:46;25.70;1.40
2174;DHT22;1093;51.424;11.764;2023-05-21T09:45:17;25.80;1.40
2174;DHT22;1093;51.424;11.764;2023-05-21T09:47:45;25.90;1.40
2174;DHT22;1093;51.424;11.764;2023-05-21T09:50:17;25.90;1.40
2174;DHT22;1093;51.424;11.764;2023-05-21T09:52:46;26.20;1.40
2174;DHT22;1093;51.424;11.764;2023-05-21T09:55:16;26.30;1.40
2174;DHT22;1093;51.424;11.764;2023-05-21T09:57:43;26.50;1.40
2174;DHT22;1093;51.424;11.764;2023-05-21T10:00:18;26.40;1.40
2174;DHT22;1093;51.424;11.764;2023-05-21T10:02:46;26.50;1.40
2174;DHT22;1093;51.424;11.764;2023-05-21T10:05:15;26.50;1.40
2174;DHT22;1093;51.424;11.764;2023-05-21T10:07:48;26.50;1.40
2174;DHT22;1093;51.424;11.764;2023-05-21T10:10:19;26.60;1.40
2174;DHT22;1093;51.424;11.764;2023-05-21T10:12:47;26.50;1.40
2174;DHT22;1093;51.424;11.764;2023-05-21T10:15:21;26.50;1.40
2174;DHT22;1093;51.424;11.764;2023-05-21T10:17:51;26.50;1.40
2174;DHT22;1093;51.424;11.764;2023-05-21T10:20:18;26.60;1.40
2174;DHT22;1093;51.424;11.764;2023-05-21T10:22:45;26.80;1.40
2174;DHT22;1093;51.424;11.764;2023-05-21T10:25:14;26.80;1.40
2174;DHT22;1093;51.424;11.764;2023-05-21T10:27:44;26.90;1.40
2174;DHT22;1093;51.424;11.764;2023-05-21T10:30:11;26.80;1.40
2174;DHT22;1093;51.424;11.764;2023-05-21T10:32:39;26.80;1.40
2174;DHT22;1093;51.424;11.764;2023-05-21T10:35:08;26.80;1.40
2174;DHT22;1093;51.424;11.764;2023-05-21T10:37:35;26.90;1.40
2174;DHT22;1093;51.424;11.764;2023-05-21T10:40:03;26.80;1.40
2174;DHT22;1093;51.424;11.764;2023-05-21T10:42:58;26.80;1.40
2174;DHT22;1093;51.424;11.764;2023-05-21T10:45:35;26.90;1.40
2174;DHT22;1093;51.424;11.764;2023-05-21T10:48:25;26.90;1.40
2174;DHT22;1093;51.424;11.764;2023-05-21T10:51:14;26.90;1.40
2174;DHT22;1093;51.424;11.764;2023-05-21T10:53:55;26.80;1.40
2174;DHT22;1093;51.424;11.764;2023-05-21T10:56:29;27.00;1.40
2174;DHT22;1093;51.424;11.764;2023-05-21T10:59:14;26.90;1.40
2174;DHT22;1093;51.424;11.764;2023-05-21T11:01:47;26.90;1.40
2174;DHT22;1093;51.424;11.764;2023-05-21T11:04:16;27.00;1.40
2174;DHT22;1093;51.424;11.764;2023-05-21T11:06:47;27.10;1.40
2174;DHT22;1093;51.424;11.764;2023-05-21T11:09:14;27.20;1.40
2174;DHT22;1093;51.424;11.764;2023-05-21T11:11:43;27.20;1.40
2174;DHT22;1093;51.424;11.764;2023-05-21T11:14:32;27.20;1.40
2174;DHT22;1093;51.424;11.764;2023-05-21T11:17:01;27.30;1.40
2174;DHT22;1093;51.424;11.764;2023-05-21T11:19:35;27.40;1.40
2174;DHT22;1093;51.424;11.764;2023-05-21T11:22:09;27.30;1.40
2174;DHT22;1093;51.424;11.764;2023-05-21T11:24:36;27.50;1.40
2174;DHT22;1093;51.424;11.764;2023-05-21T11:27:05;27.40;1.40
2174;DHT22;1093;51.424;11.764;2023-05-21T11:29:39;27.50;1.40
2174;DHT22;1093;51.424;11.764;2023-05-21T11:32:07;27.50;1.40
2174;DHT22;1093;51.424;11.764;2023-05-21T11:34:42;27.50;1.40
2174;DHT22;1093;51.424;11.764;2023-05-21T11:37:40;27.70;1.40
2174;DHT22;1093;51.424;11.764;2023-05-21T11:40:19;27.60;1.40
2174;DHT22;1093;51.424;11.764;2023-05-21T11:42:49;27.60;1.40
2174;DHT22;1093;51.424;11.764;2023-05-21T11:45:20;27.60;1.40
2174;DHT22;1093;51.424;11.764;2023-05-21T11:47:47;27.60;1.40
2174;DHT22;1093;51.424;11.764;2023-05-21T11:50:15;27.70;1.40
2174;DHT22;1093;51.424;11.764;2023-05-21T11:52:43;27.80;1.40
2174;DHT22;1093;51.424;11.764;2023-05-21T11:55:09;27.80;1.40
2174;DHT22;1093;51.424;11.764;2023-05-21T11:57:39;27.70;1.40
2174;DHT22;1093;51.424;11.764;2023-05-21T12:00:12;27.80;1.40
2174;DHT22;1093;51.424;11.764;2023-05-21T12:02:45;27.80;1.40
2174;DHT22;1093;51.424;11.764;2023-05-21T12:05:11;27.80;1.40
2174;DHT22;1093;51.424;11.764;2023-05-21T12:07:38;27.70;1.40
2174;DHT22;1093;51.424;11.764;2023-05-21T12:10:08;27.70;1.40
2174;DHT22;1093;51.424;11.764;2023-05-21T12:12:35;27.70;1.40
2174;DHT22;1093;51.424;11.764;2023-05-21T12:15:02;27.70;1.40
2174;DHT22;1093;51.424;11.764;2023-05-21T12:17:29;27.60;1.40
2174;DHT22;1093;51.424;11.764;2023-05-21T12:19:58;27.60;1.40
2174;DHT22;1093;51.424;11.764;2023-05-21T12:22:26;27.60;1.40
2174;DHT22;1093;51.424;11.764;2023-05-21T12:24:54;27.60;1.40
2174;DHT22;1093;51.424;11.764;2023-05-21T12:27:27;27.70;1.40
2174;DHT22;1093;51.424;11.764;2023-05-21T12:29:55;27.90;1.40
2174;DHT22;1093;51.424;11.764;2023-05-21T12:32:22;27.80;1.40
2174;DHT22;1093;51.424;11.764;2023-05-21T12:34:54;27.80;1.40
2174;DHT22;1093;51.424;11.764;2023-05-21T12:37:24;27.70;1.40
2174;DHT22;1093;51.424;11.764;2023-05-21T12:39:52;27.70;1.40
2174;DHT22;1093;51.424;11.764;2023-05-21T12:42:24;27.60;1.40
2174;DHT22;1093;51.424;11.764;2023-05-21T12:44:52;27.70;1.40
2174;DHT22;1093;51.424;11.764;2023-05-21T12:47:22;27.70;1.40
2174;DHT22;1093;51.424;11.764;2023-05-21T12:49:58;27.70;1.40
2174;DHT22;1093;51.424;11.764;2023-05-21T12:52:27;27.60;1.40
2174;DHT22;1093;51.424;11.764;2023-05-21T12:54:55;27.60;1.40
2174;DHT22;1093;51.424;11.764;2023-05-21T12:57:24;27.60;1.40
2174;DHT22;1093;51.424;11.764;2023-05-21T12:59:55;27.50;1.40
2174;DHT22;1093;51.424;11.764;2023-05-21T13:02:23;27.30;1.40
2174;DHT22;1093;51.424;11.764;2023-05-21T13:04:54;27.40;1.40
2174;DHT22;1093;51.424;11.764;2023-05-21T13:07:22;27.40;1.40
2174;DHT22;1093;51.424;11.764;2023-05-21T13:09:50;27.40;1.40
2174;DHT22;1093;51.424;11.764;2023-05-21T13:12:18;27.50;1.40
2174;DHT22;1093;51.424;11.764;2023-05-21T13:14:55;27.60;1.40
2174;DHT22;1093;51.424;11.764;2023-05-21T13:17:23;27.60;1.40
2174;DHT22;1093;51.424;11.764;2023-05-21T13:20:04;27.60;1.40
2174;DHT22;1093;51.424;11.764;2023-05-21T13:22:32;27.70;1.40
2174;DHT22;1093;51.424;11.764;2023-05-21T13:25:01;27.70;1.40
2174;DHT22;1093;51.424;11.764;2023-05-21T13:27:28;27.60;1.40
2174;DHT22;1093;51.424;11.764;2023-05-21T13:29:54;27.60;1.40
2174;DHT22;1093;51.424;11.764;2023-05-21T13:32:23;27.50;1.40
2174;DHT22;1093;51.424;11.764;2023-05-21T13:34:49;27.50;1.40
2174;DHT22;1093;51.424;11.764;2023-05-21T13:37:16;27.50;1.40
2174;DHT22;1093;51.424;11.764;2023-05-21T13:39:44;27.60;1.40
2174;DHT22;1093;51.424;11.764;2023-05-21T13:42:13;27.70;1.40
2174;DHT22;1093;51.424;11.764;2023-05-21T13:44:39;27.60;1.40
2174;DHT22;1093;51.424;11.764;2023-05-21T13:47:07;27.70;1.40
2174;DHT22;1093;51.424;11.764;2023-05-21T13:49:36;27.70;1.40
2174;DHT22;1093;51.424;11.764;2023-05-21T13:52:04;27.60;1.40
2174;DHT22;1093;51.424;11.764;2023-05-21T13:54:31;27.50;1.40
2174;DHT22;1093;51.424;11.764;2023-05-21T13:56:58;27.50;1.40
2174;DHT22;1093;51.424;11.764;2023-05-21T13:59:26;27.50;1.40
2174;DHT22;1093;51.424;11.764;2023-05-21T14:01:53;27.60;1.40
2174;DHT22;1093;51.424;11.764;2023-05-21T14:04:20;27.50;1.40
2174;DHT22;1093;51.424;11.764;2023-05-21T14:06:47;27.40;1.40
2174;DHT22;1093;51.424;11.764;2023-05-21T14:09:13;27.50;1.40
2174;DHT22;1093;51.424;11.764;2023-05-21T14:11:41;27.50;1.40
2174;DHT22;1093;51.424;11.764;2023-05-21T14:14:08;27.40;1.40
2174;DHT22;1093;51.424;11.764;2023-05-21T14:16:37;27.40;1.40
2174;DHT22;1093;51.424;11.764;2023-05-21T14:19:04;27.40;1.40
2174;DHT22;1093;51.424;11.764;2023-05-21T14:21:30;27.40;1.40
2174;DHT22;1093;51.424;11.764;2023-05-21T14:23:57;27.40;1.40
2174;DHT22;1093;51.424;11.764;2023-05-21T14:26:24;27.20;1.40
2174;DHT22;1093;51.424;11.764;2023-05-21T14:28:52;27.20;1.40
2174;DHT22;1093;51.424;11.764;2023-05-21T14:31:19;27.20;1.40
2174;DHT22;1093;51.424;11.764;2023-05-21T14:33:49;27.10;1.40
2174;DHT22;1093;51.424;11.764;2023-05-21T14:36:16;27.10;1.40
2174;DHT22;1093;51.424;11.764;2023-05-21T14:38:42;27.10;1.40
2174;DHT22;1093;51.424;11.764;2023-05-21T14:41:09;27.10;1.40
2174;DHT22;1093;51.424;11.764;2023-05-21T14:43:36;27.00;1.40
2174;DHT22;1093;51.424;11.764;2023-05-21T14:46:02;26.90;1.40
2174;DHT22;1093;51.424;11.764;2023-05-21T14:48:29;26.90;1.40
2174;DHT22;1093;51.424;11.764;2023-05-21T14:50:57;26.90;1.40
2174;DHT22;1093;51.424;11.764;2023-05-21T14:53:24;26.80;1.40
2174;DHT22;1093;51.424;11.764;2023-05-21T14:55:51;26.80;1.40
2174;DHT22;1093;51.424;11.764;2023-05-21T14:58:18;26.90;1.40
2174;DHT22;1093;51.424;11.764;2023-05-21T15:00:45;26.70;1.40
2174;DHT22;1093;51.424;11.764;2023-05-21T15:03:12;26.90;1.40
2174;DHT22;1093;51.424;11.764;2023-05-21T15:05:40;26.70;1.40
2174;DHT22;1093;51.424;11.764;2023-05-21T15:08:08;26.80;1.40
2174;DHT22;1093;51.424;11.764;2023-05-21T15:10:35;26.70;1.40
2174;DHT22;1093;51.424;11.764;2023-05-21T15:13:01;26.80;1.40
2174;DHT22;1093;51.424;11.764;2023-05-21T15:15:28;26.70;1.40
2174;DHT22;1093;51.424;11.764;2023-05-21T15:17:55;26.80;1.40
2174;DHT22;1093;51.424;11.764;2023-05-21T15:20:22;26.80;1.40
2174;DHT22;1093;51.424;11.764;2023-05-21T15:22:49;26.70;1.40
2174;DHT22;1093;51.424;11.764;2023-05-21T15:25:17;26.70;1.40
2174;DHT22;1093;51.424;11.764;2023-05-21T15:27:44;26.60;1.40
2174;DHT22;1093;51.424;11.764;2023-05-21T15:30:11;26.50;1.40
2174;DHT22;1093;51.424;11.764;2023-05-21T15:32:38;26.40;1.40
2174;DHT22;1093;51.424;11.764;2023-05-21T15:35:05;26.40;1.40
2174;DHT22;1093;51.424;11.764;2023-05-21T15:37:32;26.40;1.40
2174;DHT22;1093;51.424;11.764;2023-05-21T15:39:59;26.40;1.40
2174;DHT22;1093;51.424;11.764;2023-05-21T15:42:27;26.30;1.40
2174;DHT22;1093;51.424;11.764;2023-05-21T15:44:56;26.30;1.40
2174;DHT22;1093;51.424;11.764;2023-05-21T15:47:22;26.20;1.40
2174;DHT22;1093;51.424;11.764;2023-05-21T15:49:49;26.10;1.40
2174;DHT22;1093;51.424;11.764;2023-05-21T15:52:16;25.90;1.40
2174;DHT22;1093;51.424;11.764;2023-05-21T15:54:44;26.00;1.40
2174;DHT22;1093;51.424;11.764;2023-05-21T15:57:11;26.00;1.40
2174;DHT22;1093;51.424;11.764;2023-05-21T15:59:39;26.00;1.40
2174;DHT22;1093;51.424;11.764;2023-05-21T16:02:07;26.00;1.40
2174;DHT22;1093;51.424;11.764;2023-05-21T16:04:37;26.00;1.40
2174;DHT22;1093;51.424;11.764;2023-05-21T16:07:04;25.80;1.40
2174;DHT22;1093;51.424;11.764;2023-05-21T16:09:31;25.80;1.40